createdAt,value
2018-04-19T10:32:46.188Z,5.40
2018-04-19T10:35:15.004Z,5.50
2018-04-19T10:37:43.784Z,5.60
2018-04-19T10:40:12.591Z,5.30
2018-04-19T10:42:41.422Z,4.97
2018-04-19T10:45:10.198Z,5.30
2018-04-19T10:47:38.971Z,4.47
2018-04-19T10:50:07.761Z,4.13
2018-04-19T10:52:36.544Z,4.30
2018-04-19T10:55:05.547Z,3.93
2018-04-19T10:57:34.328Z,4.23
2018-04-19T11:00:03.134Z,4.13
2018-04-19T11:02:31.988Z,3.80
2018-04-19T11:05:00.760Z,3.50
2018-04-19T11:07:29.563Z,4.07
2018-04-19T11:09:58.372Z,4.17
2018-04-19T11:12:27.160Z,3.70
2018-04-19T11:14:55.932Z,3.53
2018-04-19T11:17:24.839Z,3.83
2018-04-19T11:19:53.616Z,3.37
2018-04-19T11:22:22.415Z,4.00
2018-04-19T11:24:51.192Z,3.80
2018-04-19T11:27:19.992Z,4.00
2018-04-19T11:29:48.804Z,3.70
2018-04-19T11:32:17.679Z,3.60
2018-04-19T11:34:46.451Z,3.70
2018-04-19T11:37:15.248Z,3.67
2018-04-19T11:39:44.024Z,3.60
2018-04-19T11:42:12.801Z,4.17
2018-04-19T11:44:42.124Z,4.07
2018-04-19T11:47:10.900Z,4.10
2018-04-19T11:49:39.679Z,3.93
2018-04-19T11:52:08.452Z,3.97
2018-04-19T11:54:37.444Z,4.10
2018-04-19T11:57:06.216Z,3.37
2018-04-19T11:59:34.998Z,4.23
2018-04-19T12:02:03.887Z,4.03
2018-04-19T12:04:32.656Z,3.70
2018-04-19T12:07:01.448Z,3.47
2018-04-19T12:09:30.225Z,4.27
2018-04-19T12:11:59.020Z,3.50
2018-04-19T12:14:27.800Z,3.43
2018-04-19T12:16:56.592Z,3.80
2018-04-19T12:19:25.359Z,3.57
2018-04-19T12:21:54.905Z,4.07
2018-04-19T12:24:23.675Z,3.20
2018-04-19T12:26:52.472Z,3.40
2018-04-19T12:29:21.248Z,3.80
2018-04-19T12:31:50.020Z,3.60
2018-04-19T12:34:18.815Z,3.90
2018-04-19T12:36:47.595Z,3.33
2018-04-19T12:39:17.284Z,3.57
2018-04-19T12:41:46.072Z,4.10
2018-04-19T12:44:14.908Z,3.77
2018-04-19T12:46:43.688Z,4.07
2018-04-19T12:49:12.459Z,3.93
2018-04-19T12:51:41.256Z,3.70
2018-04-19T12:54:10.051Z,3.93
2018-04-19T12:56:38.852Z,3.70
2018-04-19T12:59:07.637Z,3.33
2018-04-19T13:01:36.428Z,3.67
2018-04-19T13:04:05.200Z,3.73
2018-04-19T13:06:33.991Z,3.20
2018-04-19T13:09:02.760Z,3.90
2018-04-19T13:11:31.556Z,3.50
2018-04-19T13:14:00.351Z,3.47
2018-04-19T13:16:29.132Z,3.33
2018-04-19T13:18:57.940Z,3.30
2018-04-19T13:21:26.721Z,2.97
2018-04-19T13:23:55.625Z,3.13
2018-04-19T13:26:24.407Z,3.20
2018-04-19T13:28:53.209Z,2.83
2018-04-19T13:31:21.975Z,3.70
2018-04-19T13:33:50.767Z,2.53
2018-04-19T13:36:19.555Z,3.03
2018-04-19T13:38:48.327Z,3.03
2018-04-19T13:41:17.119Z,3.60
2018-04-19T13:43:45.899Z,2.80
2018-04-19T13:46:14.696Z,2.80
2018-04-19T13:48:43.610Z,3.03
2018-04-19T13:51:12.380Z,3.10
2018-04-19T13:53:41.176Z,3.27
2018-04-19T13:56:09.981Z,8.10
2018-04-19T13:58:38.751Z,7.30
2018-04-19T14:01:07.549Z,5.37
2018-04-19T14:03:36.332Z,4.50
2018-04-19T14:06:05.128Z,4.43
2018-04-19T14:08:33.909Z,5.37
2018-04-19T14:11:02.696Z,5.30
2018-04-19T14:13:31.513Z,4.73
2018-04-19T14:16:00.332Z,4.63
2018-04-19T14:18:29.119Z,4.90
2018-04-19T14:20:57.927Z,4.13
2018-04-19T14:23:26.894Z,5.07
2018-04-19T14:25:55.793Z,3.93
2018-04-19T14:28:24.563Z,4.50
2018-04-19T14:30:53.336Z,4.00
2018-04-19T14:33:22.129Z,3.97
2018-04-19T14:35:50.925Z,4.17
2018-04-19T14:38:19.759Z,3.90
2018-04-19T14:40:48.476Z,4.17
2018-04-19T14:43:17.293Z,4.67
2018-04-19T14:45:46.069Z,3.60
2018-04-19T14:48:14.860Z,3.50
2018-04-19T14:50:43.636Z,3.60
2018-04-19T14:53:12.427Z,3.77
2018-04-19T14:55:41.296Z,3.60
2018-04-19T14:58:10.080Z,3.43
2018-04-19T15:00:38.949Z,3.70
2018-04-19T15:03:07.735Z,3.83
2018-04-19T15:05:36.533Z,3.30
2018-04-19T15:08:05.323Z,3.37
2018-04-19T15:10:34.085Z,3.20
2018-04-19T15:13:02.875Z,3.87
2018-04-19T15:15:31.671Z,3.87
2018-04-19T15:18:00.444Z,3.70
2018-04-19T15:20:29.239Z,2.97
2018-04-19T15:22:58.017Z,3.37
2018-04-19T15:25:26.784Z,3.40
2018-04-19T15:27:55.593Z,3.40
2018-04-19T15:30:24.359Z,3.60
2018-04-19T15:32:53.129Z,3.43
2018-04-19T15:35:21.940Z,3.60
2018-04-19T15:37:50.711Z,3.13
2018-04-19T15:40:19.484Z,3.30
2018-04-19T15:42:48.279Z,3.20
2018-04-19T15:45:17.053Z,3.80
2018-04-19T15:47:45.823Z,3.43
2018-04-19T15:50:14.616Z,3.43
2018-04-19T15:52:43.407Z,3.70
2018-04-19T15:55:12.177Z,3.50
2018-04-19T15:57:40.988Z,3.40
2018-04-19T16:00:09.768Z,3.30
2018-04-19T16:02:38.591Z,3.20
2018-04-19T16:05:07.348Z,3.53
2018-04-19T16:07:36.160Z,3.10
2018-04-19T16:10:04.944Z,3.23
2018-04-19T16:12:33.716Z,3.70
2018-04-19T16:15:02.511Z,2.83
2018-04-19T16:17:31.310Z,2.93
2018-04-19T16:20:00.076Z,3.63
2018-04-19T16:22:28.872Z,3.53
2018-04-19T16:24:57.660Z,3.43
2018-04-19T16:27:26.444Z,3.10
2018-04-19T16:29:55.248Z,3.57
2018-04-19T16:32:24.032Z,3.10
2018-04-19T16:34:52.799Z,3.17
2018-04-19T16:37:21.596Z,3.10
2018-04-19T16:39:50.367Z,3.50
2018-04-19T16:42:19.172Z,3.43
2018-04-19T16:44:47.988Z,3.20
2018-04-19T16:47:16.722Z,3.43
2018-04-19T16:49:45.517Z,3.17
2018-04-19T16:52:14.284Z,3.37
2018-04-19T16:54:43.079Z,3.60
2018-04-19T16:57:11.856Z,3.80
2018-04-19T16:59:40.631Z,4.53
2018-04-19T17:02:09.433Z,3.17
2018-04-19T17:04:38.207Z,3.50
2018-04-19T17:07:07.005Z,3.50
2018-04-19T17:09:35.780Z,3.87
2018-04-19T17:12:04.580Z,3.50
2018-04-19T17:14:33.388Z,3.17
2018-04-19T17:17:02.168Z,3.63
2018-04-19T17:19:31.031Z,2.83
2018-04-19T17:21:59.863Z,3.10
2018-04-19T17:24:28.644Z,3.30
2018-04-19T17:26:57.504Z,3.10
2018-04-19T17:29:26.303Z,3.43
2018-04-19T17:31:55.184Z,3.67
2018-04-19T17:34:23.988Z,4.20
2018-04-19T17:36:52.804Z,3.57
2018-04-19T17:39:21.607Z,3.30
2018-04-19T17:41:50.476Z,3.50
2018-04-19T17:44:19.336Z,3.63
2018-04-19T17:46:48.128Z,3.40
2018-04-19T17:49:16.899Z,3.63
2018-04-19T17:51:45.704Z,3.20
2018-04-19T17:54:14.500Z,3.67
2018-04-19T17:56:43.305Z,3.80
2018-04-19T17:59:12.116Z,3.03
2018-04-19T18:01:40.868Z,3.47
2018-04-19T18:04:09.676Z,3.37
2018-04-19T18:06:38.455Z,3.80
2018-04-19T18:09:07.223Z,3.17
2018-04-19T18:11:36.026Z,3.30
2018-04-19T18:14:04.803Z,3.53
2018-04-19T18:16:33.580Z,3.47
2018-04-19T18:19:02.384Z,3.07
2018-04-19T18:21:31.182Z,3.20
2018-04-19T18:23:59.976Z,3.97
2018-04-19T18:26:28.752Z,2.90
2018-04-19T18:28:57.560Z,3.23
2018-04-19T18:31:26.333Z,3.30
2018-04-19T18:33:55.108Z,2.93
2018-04-19T18:36:24.450Z,3.80
2018-04-19T18:44:29.129Z,3.30
2018-04-19T18:46:57.938Z,3.60
2018-04-19T18:49:26.750Z,3.40
2018-04-19T18:51:55.531Z,4.20
2018-04-19T18:54:24.399Z,3.90
2018-04-19T18:56:53.356Z,3.63
2018-04-19T18:59:22.148Z,3.63
2018-04-19T19:01:50.927Z,3.33
2018-04-19T19:04:19.735Z,3.33
2018-04-19T19:06:48.631Z,3.47
2018-04-19T19:09:17.400Z,3.27
2018-04-19T19:11:46.210Z,3.43
2018-04-19T19:14:15.008Z,3.43
2018-04-19T19:16:43.818Z,3.53
2018-04-19T19:19:33.328Z,3.50
2018-04-19T19:22:02.162Z,3.47
2018-04-19T19:24:30.932Z,3.67
2018-04-19T19:26:59.718Z,3.23
2018-04-19T19:29:28.532Z,4.40
2018-04-19T19:31:57.310Z,3.90
2018-04-19T19:34:26.099Z,3.53
2018-04-19T19:36:54.895Z,3.90
2018-04-19T19:39:23.680Z,4.07
2018-04-19T19:41:52.472Z,3.77
2018-04-19T19:44:21.363Z,3.30
2018-04-19T19:46:50.144Z,3.83
2018-04-19T19:49:18.944Z,4.20
2018-04-19T19:51:47.842Z,3.83
2018-04-19T19:54:16.616Z,3.97
2018-04-19T19:56:45.412Z,5.03
2018-04-19T19:59:14.200Z,3.40
2018-04-19T20:01:42.972Z,4.20
2018-04-19T20:04:11.763Z,3.97
2018-04-19T20:06:40.560Z,3.50
2018-04-19T20:09:09.340Z,3.70
2018-04-19T20:11:38.153Z,4.17
2018-04-19T20:14:06.924Z,3.67
2018-04-19T20:16:35.729Z,4.00
2018-04-19T20:19:04.506Z,3.90
2018-04-19T20:21:33.300Z,3.70
2018-04-19T20:24:02.064Z,3.70
2018-04-19T20:26:30.851Z,3.53
2018-04-19T20:28:59.639Z,3.60
2018-04-19T20:31:28.429Z,3.80
2018-04-19T20:33:57.203Z,3.90
2018-04-19T20:36:25.987Z,3.40
2018-04-19T20:38:54.760Z,3.90
2018-04-19T20:41:23.558Z,3.87
2018-04-19T20:43:52.385Z,3.60
2018-04-19T20:46:21.267Z,3.67
2018-04-19T20:48:50.040Z,3.70
2018-04-19T20:51:18.833Z,3.60
2018-04-19T20:53:47.600Z,4.10
2018-04-19T20:56:16.387Z,3.70
2018-04-19T20:58:45.164Z,3.53
2018-04-19T21:01:13.940Z,3.67
2018-04-19T21:03:42.774Z,3.30
2018-04-19T21:06:11.540Z,3.60
2018-04-19T21:08:40.473Z,3.40
2018-04-19T21:11:09.270Z,3.67
2018-04-19T21:13:38.032Z,3.53
2018-04-19T21:16:06.823Z,3.63
2018-04-19T21:18:35.600Z,3.87
2018-04-19T21:21:04.404Z,3.60
2018-04-19T21:23:33.184Z,3.77
2018-04-19T21:26:02.032Z,3.30
2018-04-19T21:28:30.996Z,3.20
2018-04-19T21:30:59.788Z,4.10
2018-04-19T21:33:28.555Z,3.30
2018-04-19T21:35:57.352Z,3.50
2018-04-19T21:38:26.277Z,3.77
2018-04-19T21:40:55.088Z,3.23
2018-04-19T21:43:23.852Z,3.33
2018-04-19T21:45:52.996Z,3.43
2018-04-19T21:48:21.894Z,3.33
2018-04-19T21:50:50.703Z,2.87
2018-04-19T21:53:19.528Z,3.70
2018-04-19T21:55:48.391Z,3.30
2018-04-19T21:58:17.212Z,3.57
2018-04-19T22:00:45.987Z,3.37
2018-04-19T22:03:14.766Z,3.50
2018-04-19T22:05:43.570Z,3.73
2018-04-19T22:08:12.357Z,3.33
2018-04-19T22:10:41.147Z,3.30
2018-04-19T22:13:09.920Z,3.50
2018-04-19T22:15:38.732Z,3.37
2018-04-19T22:18:07.529Z,3.00
2018-04-19T22:20:36.321Z,3.50
2018-04-19T22:23:05.104Z,3.20
2018-04-19T22:25:33.879Z,3.37
2018-04-19T22:28:02.677Z,3.60
2018-04-19T22:30:31.447Z,3.50
2018-04-19T22:33:00.249Z,3.10
2018-04-19T22:35:29.025Z,3.40
2018-04-19T22:37:57.808Z,3.37
2018-04-19T22:40:26.600Z,3.10
2018-04-19T22:42:55.379Z,3.30
2018-04-19T22:45:24.171Z,3.33
2018-04-19T22:47:52.952Z,3.07
2018-04-19T22:50:21.749Z,3.10
2018-04-19T22:52:50.528Z,3.20
2018-04-19T22:55:19.357Z,3.10
2018-04-19T22:57:48.157Z,3.50
2018-04-19T23:00:16.952Z,3.20
2018-04-19T23:02:45.735Z,3.30
2018-04-19T23:05:14.506Z,3.00
2018-04-19T23:07:43.315Z,2.90
2018-04-19T23:10:12.092Z,3.33
2018-04-19T23:12:40.929Z,3.50
2018-04-19T23:15:09.741Z,3.57
2018-04-19T23:17:38.548Z,3.27
2018-04-19T23:20:07.333Z,3.33
2018-04-19T23:22:36.178Z,3.20
2018-04-19T23:25:04.971Z,3.40
2018-04-19T23:27:33.725Z,3.13
2018-04-19T23:30:02.513Z,4.40
2018-04-19T23:32:31.283Z,3.00
2018-04-19T23:35:00.121Z,3.07
2018-04-19T23:37:28.883Z,2.77
2018-04-19T23:39:57.699Z,3.43
2018-04-19T23:42:26.451Z,3.10
2018-04-19T23:44:55.252Z,3.40
2018-04-19T23:47:24.030Z,2.90
2018-04-19T23:49:52.804Z,3.03
2018-04-19T23:52:21.594Z,3.20
2018-04-19T23:54:50.435Z,2.83
2018-04-19T23:57:19.183Z,3.07
2018-04-19T23:59:48.013Z,3.40
